sensor_id;sensor_type;location;lat;lon;timestamp;temperature;humidity
10354;DHT22;5223;50.924;13.338;2022-08-19T00:02:16;18.90;99.90
10354;DHT22;5223;50.924;13.338;2022-08-19T00:04:44;18.90;99.90
10354;DHT22;5223;50.924;13.338;2022-08-19T00:07:13;19.00;99.90
10354;DHT22;5223;50.924;13.338;2022-08-19T00:09:40;18.90;99.90
10354;DHT22;5223;50.924;13.338;2022-08-19T00:12:08;18.90;99.90
10354;DHT22;5223;50.924;13.338;2022-08-19T00:14:38;18.90;99.90
10354;DHT22;5223;50.924;13.338;2022-08-19T00:17:07;18.90;99.90
10354;DHT22;5223;50.924;13.338;2022-08-19T00:19:35;19.00;99.90
10354;DHT22;5223;50.924;13.338;2022-08-19T00:22:03;19.00;99.90
10354;DHT22;5223;50.924;13.338;2022-08-19T00:24:31;18.90;99.90
10354;DHT22;5223;50.924;13.338;2022-08-19T00:26:58;19.00;99.90
10354;DHT22;5223;50.924;13.338;2022-08-19T00:29:27;18.90;99.90
10354;DHT22;5223;50.924;13.338;2022-08-19T00:31:56;19.00;99.90
10354;DHT22;5223;50.924;13.338;2022-08-19T00:34:25;18.90;99.90
10354;DHT22;5223;50.924;13.338;2022-08-19T00:36:56;18.90;99.90
10354;DHT22;5223;50.924;13.338;2022-08-19T00:39:23;18.90;99.90
10354;DHT22;5223;50.924;13.338;2022-08-19T00:41:50;18.90;99.90
10354;DHT22;5223;50.924;13.338;2022-08-19T00:44:21;18.90;99.90
10354;DHT22;5223;50.924;13.338;2022-08-19T00:46:50;18.90;99.90
10354;DHT22;5223;50.924;13.338;2022-08-19T00:49:22;19.00;99.90
10354;DHT22;5223;50.924;13.338;2022-08-19T00:51:54;18.90;99.90
10354;DHT22;5223;50.924;13.338;2022-08-19T00:54:22;19.00;99.90
10354;DHT22;5223;50.924;13.338;2022-08-19T00:56:50;19.00;99.90
10354;DHT22;5223;50.924;13.338;2022-08-19T00:59:18;19.00;99.90
10354;DHT22;5223;50.924;13.338;2022-08-19T01:01:46;19.00;99.90
10354;DHT22;5223;50.924;13.338;2022-08-19T01:04:13;19.00;99.90
10354;DHT22;5223;50.924;13.338;2022-08-19T01:06:42;19.00;99.90
10354;DHT22;5223;50.924;13.338;2022-08-19T01:09:09;19.00;99.90
10354;DHT22;5223;50.924;13.338;2022-08-19T01:11:39;18.90;99.90
10354;DHT22;5223;50.924;13.338;2022-08-19T01:14:07;18.90;99.90
10354;DHT22;5223;50.924;13.338;2022-08-19T01:16:36;19.00;99.90
10354;DHT22;5223;50.924;13.338;2022-08-19T01:19:09;19.00;99.90
10354;DHT22;5223;50.924;13.338;2022-08-19T01:21:45;18.90;99.90
10354;DHT22;5223;50.924;13.338;2022-08-19T01:24:15;19.00;99.90
10354;DHT22;5223;50.924;13.338;2022-08-19T01:26:44;19.00;99.90
10354;DHT22;5223;50.924;13.338;2022-08-19T01:29:11;18.90;99.90
10354;DHT22;5223;50.924;13.338;2022-08-19T01:31:38;18.90;99.90
10354;DHT22;5223;50.924;13.338;2022-08-19T01:34:06;18.90;99.90
10354;DHT22;5223;50.924;13.338;2022-08-19T01:36:36;18.90;99.90
10354;DHT22;5223;50.924;13.338;2022-08-19T01:39:06;18.90;99.90
10354;DHT22;5223;50.924;13.338;2022-08-19T01:41:36;18.90;99.90
10354;DHT22;5223;50.924;13.338;2022-08-19T01:44:04;19.00;99.90
10354;DHT22;5223;50.924;13.338;2022-08-19T01:46:32;19.00;99.90
10354;DHT22;5223;50.924;13.338;2022-08-19T01:48:59;19.00;99.90
10354;DHT22;5223;50.924;13.338;2022-08-19T01:51:26;19.00;99.90
10354;DHT22;5223;50.924;13.338;2022-08-19T01:53:54;19.00;99.90
10354;DHT22;5223;50.924;13.338;2022-08-19T01:56:20;19.00;99.90
10354;DHT22;5223;50.924;13.338;2022-08-19T01:58:51;19.00;99.90
10354;DHT22;5223;50.924;13.338;2022-08-19T02:01:20;19.00;99.90
10354;DHT22;5223;50.924;13.338;2022-08-19T02:03:48;19.10;99.90
10354;DHT22;5223;50.924;13.338;2022-08-19T02:06:17;19.00;99.90
10354;DHT22;5223;50.924;13.338;2022-08-19T02:08:44;19.00;99.90
10354;DHT22;5223;50.924;13.338;2022-08-19T02:11:20;19.00;99.90
10354;DHT22;5223;50.924;13.338;2022-08-19T02:13:48;19.00;99.90
10354;DHT22;5223;50.924;13.338;2022-08-19T02:16:17;19.00;99.90
10354;DHT22;5223;50.924;13.338;2022-08-19T02:18:44;19.10;99.90
10354;DHT22;5223;50.924;13.338;2022-08-19T02:21:14;19.10;99.90
10354;DHT22;5223;50.924;13.338;2022-08-19T02:23:41;19.10;99.90
10354;DHT22;5223;50.924;13.338;2022-08-19T02:26:08;19.10;99.90
10354;DHT22;5223;50.924;13.338;2022-08-19T02:28:35;19.10;99.90
10354;DHT22;5223;50.924;13.338;2022-08-19T02:31:08;19.00;99.90
10354;DHT22;5223;50.924;13.338;2022-08-19T02:33:35;19.00;99.90
10354;DHT22;5223;50.924;13.338;2022-08-19T02:36:04;19.00;99.90
10354;DHT22;5223;50.924;13.338;2022-08-19T02:38:30;19.00;99.90
10354;DHT22;5223;50.924;13.338;2022-08-19T02:41:02;19.00;99.90
10354;DHT22;5223;50.924;13.338;2022-08-19T02:43:31;19.00;99.90
10354;DHT22;5223;50.924;13.338;2022-08-19T02:46:00;19.00;99.90
10354;DHT22;5223;50.924;13.338;2022-08-19T02:48:29;19.00;99.90
10354;DHT22;5223;50.924;13.338;2022-08-19T02:50:56;19.10;99.90
10354;DHT22;5223;50.924;13.338;2022-08-19T02:53:27;19.10;99.90
10354;DHT22;5223;50.924;13.338;2022-08-19T02:55:54;19.10;99.90
10354;DHT22;5223;50.924;13.338;2022-08-19T02:58:22;19.10;99.90
10354;DHT22;5223;50.924;13.338;2022-08-19T03:00:51;19.10;99.90
10354;DHT22;5223;50.924;13.338;2022-08-19T03:03:19;19.20;99.90
10354;DHT22;5223;50.924;13.338;2022-08-19T03:05:48;19.20;99.90
10354;DHT22;5223;50.924;13.338;2022-08-19T03:08:15;19.20;99.90
10354;DHT22;5223;50.924;13.338;2022-08-19T03:10:43;19.20;99.90
10354;DHT22;5223;50.924;13.338;2022-08-19T03:13:12;19.20;99.90
10354;DHT22;5223;50.924;13.338;2022-08-19T03:15:41;19.20;99.90
10354;DHT22;5223;50.924;13.338;2022-08-19T03:18:10;19.20;99.90
10354;DHT22;5223;50.924;13.338;2022-08-19T03:20:41;19.20;99.90
10354;DHT22;5223;50.924;13.338;2022-08-19T03:23:09;19.30;99.90
10354;DHT22;5223;50.924;13.338;2022-08-19T03:25:39;19.30;99.90
10354;DHT22;5223;50.924;13.338;2022-08-19T03:28:10;19.30;99.90
10354;DHT22;5223;50.924;13.338;2022-08-19T03:30:37;19.30;99.90
10354;DHT22;5223;50.924;13.338;2022-08-19T03:33:06;19.30;99.90
10354;DHT22;5223;50.924;13.338;2022-08-19T03:35:33;19.20;99.90
10354;DHT22;5223;50.924;13.338;2022-08-19T03:38:03;19.20;99.90
10354;DHT22;5223;50.924;13.338;2022-08-19T03:40:36;19.20;99.90
10354;DHT22;5223;50.924;13.338;2022-08-19T03:43:03;19.20;99.90
10354;DHT22;5223;50.924;13.338;2022-08-19T03:45:33;19.20;99.90
10354;DHT22;5223;50.924;13.338;2022-08-19T03:48:00;19.20;99.90
10354;DHT22;5223;50.924;13.338;2022-08-19T03:50:27;19.20;99.90
10354;DHT22;5223;50.924;13.338;2022-08-19T03:52:54;19.20;99.90
10354;DHT22;5223;50.924;13.338;2022-08-19T03:55:20;19.10;99.90
10354;DHT22;5223;50.924;13.338;2022-08-19T03:57:49;19.10;99.90
10354;DHT22;5223;50.924;13.338;2022-08-19T04:00:16;19.20;99.90
10354;DHT22;5223;50.924;13.338;2022-08-19T04:02:43;19.20;99.90
10354;DHT22;5223;50.924;13.338;2022-08-19T04:05:10;19.20;99.90
10354;DHT22;5223;50.924;13.338;2022-08-19T04:07:38;19.20;99.90
10354;DHT22;5223;50.924;13.338;2022-08-19T04:10:05;19.20;99.90
10354;DHT22;5223;50.924;13.338;2022-08-19T04:12:32;19.10;99.90
10354;DHT22;5223;50.924;13.338;2022-08-19T04:15:00;19.10;99.90
10354;DHT22;5223;50.924;13.338;2022-08-19T04:17:27;19.10;99.90
10354;DHT22;5223;50.924;13.338;2022-08-19T04:19:57;19.10;99.90
10354;DHT22;5223;50.924;13.338;2022-08-19T04:22:24;19.10;99.90
10354;DHT22;5223;50.924;13.338;2022-08-19T04:24:51;19.10;99.90
10354;DHT22;5223;50.924;13.338;2022-08-19T04:27:18;19.10;99.90
10354;DHT22;5223;50.924;13.338;2022-08-19T04:29:48;19.10;99.90
10354;DHT22;5223;50.924;13.338;2022-08-19T04:32:16;19.10;99.90
10354;DHT22;5223;50.924;13.338;2022-08-19T04:34:43;19.10;99.90
10354;DHT22;5223;50.924;13.338;2022-08-19T04:37:10;19.20;99.90
10354;DHT22;5223;50.924;13.338;2022-08-19T04:39:38;19.20;99.90
10354;DHT22;5223;50.924;13.338;2022-08-19T04:42:23;19.20;99.90
10354;DHT22;5223;50.924;13.338;2022-08-19T04:45:06;19.20;99.90
10354;DHT22;5223;50.924;13.338;2022-08-19T04:47:37;19.20;99.90
10354;DHT22;5223;50.924;13.338;2022-08-19T04:50:05;19.20;99.90
10354;DHT22;5223;50.924;13.338;2022-08-19T04:52:32;19.20;99.90
10354;DHT22;5223;50.924;13.338;2022-08-19T04:54:59;19.20;99.90
10354;DHT22;5223;50.924;13.338;2022-08-19T04:57:26;19.20;99.90
10354;DHT22;5223;50.924;13.338;2022-08-19T04:59:54;19.20;99.90
10354;DHT22;5223;50.924;13.338;2022-08-19T05:02:21;19.20;99.90
10354;DHT22;5223;50.924;13.338;2022-08-19T05:04:56;19.20;99.90
10354;DHT22;5223;50.924;13.338;2022-08-19T05:07:25;19.20;99.90
10354;DHT22;5223;50.924;13.338;2022-08-19T05:09:52;19.20;99.90
10354;DHT22;5223;50.924;13.338;2022-08-19T05:12:19;19.30;99.90
10354;DHT22;5223;50.924;13.338;2022-08-19T05:14:46;19.30;99.90
10354;DHT22;5223;50.924;13.338;2022-08-19T05:17:15;19.30;99.90
10354;DHT22;5223;50.924;13.338;2022-08-19T05:19:42;19.40;99.90
10354;DHT22;5223;50.924;13.338;2022-08-19T05:22:30;19.40;99.90
10354;DHT22;5223;50.924;13.338;2022-08-19T05:25:03;19.40;99.90
10354;DHT22;5223;50.924;13.338;2022-08-19T05:27:30;19.40;99.90
10354;DHT22;5223;50.924;13.338;2022-08-19T05:29:57;19.40;99.90
10354;DHT22;5223;50.924;13.338;2022-08-19T05:32:25;19.30;99.90
10354;DHT22;5223;50.924;13.338;2022-08-19T05:34:52;19.20;99.90
10354;DHT22;5223;50.924;13.338;2022-08-19T05:37:19;19.20;99.90
10354;DHT22;5223;50.924;13.338;2022-08-19T05:39:48;19.20;99.90
10354;DHT22;5223;50.924;13.338;2022-08-19T05:42:15;19.20;99.90
10354;DHT22;5223;50.924;13.338;2022-08-19T05:44:46;19.20;99.90
10354;DHT22;5223;50.924;13.338;2022-08-19T05:47:15;19.20;99.90
10354;DHT22;5223;50.924;13.338;2022-08-19T05:49:45;19.20;99.90
10354;DHT22;5223;50.924;13.338;2022-08-19T05:52:13;19.30;99.90
10354;DHT22;5223;50.924;13.338;2022-08-19T05:54:41;19.30;99.90
10354;DHT22;5223;50.924;13.338;2022-08-19T05:57:10;19.30;99.90
10354;DHT22;5223;50.924;13.338;2022-08-19T05:59:37;19.40;99.90
10354;DHT22;5223;50.924;13.338;2022-08-19T06:02:05;19.40;99.90
10354;DHT22;5223;50.924;13.338;2022-08-19T06:04:32;19.40;99.90
10354;DHT22;5223;50.924;13.338;2022-08-19T06:06:59;19.40;99.90
10354;DHT22;5223;50.924;13.338;2022-08-19T06:09:27;19.40;99.90
10354;DHT22;5223;50.924;13.338;2022-08-19T06:11:56;19.50;99.90
10354;DHT22;5223;50.924;13.338;2022-08-19T06:14:28;19.40;99.90
10354;DHT22;5223;50.924;13.338;2022-08-19T06:16:56;19.40;99.90
10354;DHT22;5223;50.924;13.338;2022-08-19T06:19:23;19.40;99.90
10354;DHT22;5223;50.924;13.338;2022-08-19T06:21:51;19.40;99.90
10354;DHT22;5223;50.924;13.338;2022-08-19T06:24:21;19.50;99.90
10354;DHT22;5223;50.924;13.338;2022-08-19T06:26:51;19.50;99.90
10354;DHT22;5223;50.924;13.338;2022-08-19T06:32:27;19.60;99.90
10354;DHT22;5223;50.924;13.338;2022-08-19T06:35:00;19.70;99.90
10354;DHT22;5223;50.924;13.338;2022-08-19T06:37:27;19.90;99.90
10354;DHT22;5223;50.924;13.338;2022-08-19T06:39:56;20.00;99.90
10354;DHT22;5223;50.924;13.338;2022-08-19T06:42:24;20.00;99.90
10354;DHT22;5223;50.924;13.338;2022-08-19T06:44:53;20.30;99.90
10354;DHT22;5223;50.924;13.338;2022-08-19T06:47:29;20.10;99.90
10354;DHT22;5223;50.924;13.338;2022-08-19T06:50:01;19.90;99.90
10354;DHT22;5223;50.924;13.338;2022-08-19T06:52:33;19.80;99.90
10354;DHT22;5223;50.924;13.338;2022-08-19T06:55:11;19.90;99.90
10354;DHT22;5223;50.924;13.338;2022-08-19T06:57:44;20.00;99.90
10354;DHT22;5223;50.924;13.338;2022-08-19T07:00:18;19.70;99.90
10354;DHT22;5223;50.924;13.338;2022-08-19T07:02:53;19.90;99.90
10354;DHT22;5223;50.924;13.338;2022-08-19T07:05:30;19.70;99.90
10354;DHT22;5223;50.924;13.338;2022-08-19T07:08:02;19.80;99.90
10354;DHT22;5223;50.924;13.338;2022-08-19T07:10:39;19.80;99.90
10354;DHT22;5223;50.924;13.338;2022-08-19T07:13:11;20.00;99.90
10354;DHT22;5223;50.924;13.338;2022-08-19T07:15:44;19.90;99.90
10354;DHT22;5223;50.924;13.338;2022-08-19T07:18:36;19.90;99.90
10354;DHT22;5223;50.924;13.338;2022-08-19T07:21:30;19.90;99.90
10354;DHT22;5223;50.924;13.338;2022-08-19T07:24:26;19.90;99.90
10354;DHT22;5223;50.924;13.338;2022-08-19T07:27:09;19.90;99.90
10354;DHT22;5223;50.924;13.338;2022-08-19T07:29:51;19.80;99.90
10354;DHT22;5223;50.924;13.338;2022-08-19T07:32:32;20.00;99.90
10354;DHT22;5223;50.924;13.338;2022-08-19T07:35:22;19.90;99.90
10354;DHT22;5223;50.924;13.338;2022-08-19T07:38:08;19.80;99.90
10354;DHT22;5223;50.924;13.338;2022-08-19T07:41:31;19.80;99.90
10354;DHT22;5223;50.924;13.338;2022-08-19T07:44:06;19.90;99.90
10354;DHT22;5223;50.924;13.338;2022-08-19T07:46:55;19.80;99.90
10354;DHT22;5223;50.924;13.338;2022-08-19T07:49:58;19.60;99.90
10354;DHT22;5223;50.924;13.338;2022-08-19T07:52:44;19.70;99.90
10354;DHT22;5223;50.924;13.338;2022-08-19T07:55:18;19.70;99.90
10354;DHT22;5223;50.924;13.338;2022-08-19T08:01:55;19.60;99.90
10354;DHT22;5223;50.924;13.338;2022-08-19T08:05:09;19.40;99.90
10354;DHT22;5223;50.924;13.338;2022-08-19T08:08:05;19.40;99.90
10354;DHT22;5223;50.924;13.338;2022-08-19T08:11:22;19.30;99.90
10354;DHT22;5223;50.924;13.338;2022-08-19T08:14:18;19.30;99.90
10354;DHT22;5223;50.924;13.338;2022-08-19T08:17:44;19.40;99.90
10354;DHT22;5223;50.924;13.338;2022-08-19T08:20:47;19.50;99.90
10354;DHT22;5223;50.924;13.338;2022-08-19T08:23:32;19.50;99.90
10354;DHT22;5223;50.924;13.338;2022-08-19T08:26:27;19.90;99.90
10354;DHT22;5223;50.924;13.338;2022-08-19T08:29:36;20.00;99.90
10354;DHT22;5223;50.924;13.338;2022-08-19T08:32:19;20.00;99.90
10354;DHT22;5223;50.924;13.338;2022-08-19T08:35:11;20.00;99.90
10354;DHT22;5223;50.924;13.338;2022-08-19T08:37:55;19.90;99.90
10354;DHT22;5223;50.924;13.338;2022-08-19T08:40:43;19.90;99.90
10354;DHT22;5223;50.924;13.338;2022-08-19T08:43:34;19.90;99.90
10354;DHT22;5223;50.924;13.338;2022-08-19T08:46:25;20.00;99.90
10354;DHT22;5223;50.924;13.338;2022-08-19T08:49:17;20.00;99.90
10354;DHT22;5223;50.924;13.338;2022-08-19T08:52:11;20.10;99.90
10354;DHT22;5223;50.924;13.338;2022-08-19T08:54:55;20.20;99.90
10354;DHT22;5223;50.924;13.338;2022-08-19T08:57:52;20.10;99.90
10354;DHT22;5223;50.924;13.338;2022-08-19T09:00:42;19.90;99.90
10354;DHT22;5223;50.924;13.338;2022-08-19T09:03:39;20.10;99.90
10354;DHT22;5223;50.924;13.338;2022-08-19T09:06:44;19.90;99.90
10354;DHT22;5223;50.924;13.338;2022-08-19T09:28:27;20.10;99.90
10354;DHT22;5223;50.924;13.338;2022-08-19T09:31:08;20.30;99.90
10354;DHT22;5223;50.924;13.338;2022-08-19T09:33:49;20.50;99.90
10354;DHT22;5223;50.924;13.338;2022-08-19T09:36:45;20.70;99.90
10354;DHT22;5223;50.924;13.338;2022-08-19T09:39:49;20.90;99.90
10354;DHT22;5223;50.924;13.338;2022-08-19T09:42:30;20.80;99.90
10354;DHT22;5223;50.924;13.338;2022-08-19T09:45:32;20.90;99.90
10354;DHT22;5223;50.924;13.338;2022-08-19T09:48:22;21.10;99.90
10354;DHT22;5223;50.924;13.338;2022-08-19T09:51:26;20.90;99.90
10354;DHT22;5223;50.924;13.338;2022-08-19T09:54:15;20.70;99.90
10354;DHT22;5223;50.924;13.338;2022-08-19T09:56:46;20.60;99.90
10354;DHT22;5223;50.924;13.338;2022-08-19T09:59:17;20.60;99.90
10354;DHT22;5223;50.924;13.338;2022-08-19T10:01:47;20.80;99.90
10354;DHT22;5223;50.924;13.338;2022-08-19T10:04:16;21.00;99.90
10354;DHT22;5223;50.924;13.338;2022-08-19T10:06:45;21.00;99.90
10354;DHT22;5223;50.924;13.338;2022-08-19T10:09:20;21.20;99.90
10354;DHT22;5223;50.924;13.338;2022-08-19T10:12:12;21.40;99.90
10354;DHT22;5223;50.924;13.338;2022-08-19T10:14:50;21.30;99.90
10354;DHT22;5223;50.924;13.338;2022-08-19T10:17:29;22.10;99.90
10354;DHT22;5223;50.924;13.338;2022-08-19T10:52:06;24.70;99.90
10354;DHT22;5223;50.924;13.338;2022-08-19T10:54:59;25.10;99.90
10354;DHT22;5223;50.924;13.338;2022-08-19T17:55:23;19.70;99.90
10354;DHT22;5223;50.924;13.338;2022-08-19T17:58:22;19.60;99.90
